WEATHER DATA

TODAY
Time Temp. Dewp. Hum. Wind dir Wind speed Wind gust Bar. 1h Prec. 24h Prec.
00:02 23.8 20.1 80 298 2.8 3.9 1015 0.0000 0.0000
00:12 23.7 20 80 307 3.6 4.4 1015.2 0.0000 0.0000
00:22 23.7 20.2 81 310 3.6 5 1015 0.0000 0.0000
00:32 23.7 20.2 81 309 3.6 4.4 1014.9 0.0000 0.0000
00:43 23.6 20.1 81 310 3.9 5 1014.9 0.0000 0.0000
00:52 23.5 20.2 82 307 3.9 5.3 1014.7 0.0000 0.0000
01:02 23.4 20.2 82 309 3.9 5.3 1014.8 0.0000 0.0000
01:13 23.3 20.1 82 303 3.1 4.2 1014.5 0.0000 0.0000
01:23 23.2 20 82 303 3.1 4.2 1014.5 0.0000 0.0000
01:33 23.1 19.9 82 306 3.6 4.4 1014.3 0.0000 0.0000
01:43 23 19.8 82 306 3.1 4.4 1014.3 0.0000 0.0000
01:53 22.9 19.9 83 298 2.8 3.9 1014.2 0.0000 0.0000
02:03 22.7 19.7 83 304 3.1 4.2 1014.2 0.0000 0.0000
02:13 22.6 19.8 84 293 2.5 3.1 1014.3 0.0000 0.0000
02:23 22.5 19.7 84 299 2.8 3.6 1014.2 0.0000 0.0000
02:33 22.4 19.6 84 296 2.5 3.1 1014.2 0.0000 0.0000
02:43 22.2 19.4 84 294 2.5 3.1 1014.1 0.0000 0.0000
02:53 22.1 19.5 85 299 2.5 3.6 1014.3 0.0000 0.0000
03:04 21.9 19.3 85 298 2.5 3.6 1014.3 0.0000 0.0000
03:13 21.8 19.2 85 299 2.5 3.6 1014.2 0.0000 0.0000
03:23 21.7 19.1 85 296 2.5 3.6 1014.2 0.0000 0.0000
03:34 21.5 18.9 85 296 2.5 3.1 1014.2 0.0000 0.0000
03:44 21.3 18.7 85 298 2.5 3.1 1014 0.0000 0.0000
03:54 21.2 18.4 84 293 2.2 3.1 1014 0.0000 0.0000
04:03 21 18.2 84 302 2.5 3.6 1013.9 0.0000 0.0000
04:14 20.8 17.8 83 299 2.5 3.1 1013.8 0.0000 0.0000
04:24 20.6 17.4 82 296 2.5 3.1 1014 0.0000 0.0000
04:34 20.5 17.1 81 298 2.2 3.1 1014.1 0.0000 0.0000
04:45 20.3 16.5 79 297 2.5 3.6 1014.1 0.0000 0.0000
04:54 20.3 16.3 78 296 2.5 3.6 1013.9 0.0000 0.0000
05:04 20.2 16.2 78 295 2.5 3.1 1014 0.0000 0.0000
05:14 20.1 16.3 79 293 2.2 3.1 1013.9 0.0000 0.0000
05:25 20.1 16.1 78 296 2.5 3.1 1013.8 0.0000 0.0000
05:35 20.1 16.1 78 296 2.5 3.6 1013.8 0.0000 0.0000
05:44 20.2 16 77 301 2.5 3.1 1013.7 0.0000 0.0000
05:55 20.3 16.1 77 299 2.5 3.6 1013.8 0.0000 0.0000
06:05 20.5 16.3 77 301 2.5 3.6 1013.9 0.0000 0.0000
06:15 20.6 16.4 77 292 2.2 3.1 1013.9 0.0000 0.0000
06:24 20.6 16.2 76 296 2.5 3.6 1013.9 0.0000 0.0000
06:35 20.6 16.2 76 295 2.5 3.1 1013.9 0.0000 0.0000
06:45 20.7 15.9 74 298 2.5 3.6 1013.8 0.0000 0.0000
06:55 20.7 15.7 73 300 2.8 3.9 1013.7 0.0000 0.0000
07:05 20.8 15.8 73 298 2.5 3.9 1013.7 0.0000 0.0000
07:15 20.9 15.9 73 299 2.5 3.9 1013.8 0.0000 0.0000
07:25 21 16 73 297 2.5 4.2 1014 0.0000 0.0000
07:35 21.1 16.1 73 297 2.5 3.9 1013.8 0.0000 0.0000
07:46 21.1 16.1 73 295 2.5 3.6 1013.9 0.0000 0.0000
07:56 21.2 16.2 73 297 2.5 3.6 1013.9 0.0000 0.0000
08:05 21.3 16.3 73 301 2.5 3.6 1013.8 0.0000 0.0000
08:16 21.4 16.4 73 298 2.8 3.9 1014.1 0.0000 0.0000
08:26 21.5 16.5 73 298 2.5 3.6 1014.3 0.0000 0.0000
08:36 21.6 16.6 73 298 2.8 3.9 1014.4 0.0000 0.0000
08:46 21.7 16.4 72 304 3.1 5 1014.6 0.0000 0.0000
08:56 22 16.7 72 302 3.9 5.3 1014.7 0.0000 0.0000
09:06 22.4 16.9 71 298 3.9 5 1014.8 0.0000 0.0000
09:16 23.1 17.3 70 301 4.4 5.3 1014.8 0.0000 0.0000
09:26 23.9 17.9 69 300 4.2 5.3 1014.6 0.0000 0.0000
09:37 24.8 18.3 67 300 4.2 5.6 1014.7 0.0000 0.0000
09:46 25.4 18.3 65 300 4.2 5.3 1014.7 0.0000 0.0000
09:56 26 18.7 64 299 3.9 5 1014.7 0.0000 0.0000
10:07 26.5 18.6 62 296 3.9 5 1014.5 0.0000 0.0000
10:17 26.7 18.6 61 298 3.9 5 1014.5 0.0000 0.0000
10:27 26.8 18.7 61 298 3.9 5 1014.5 0.0000 0.0000
10:37 26.9 18.7 61 300 3.6 5 1014.5 0.0000 0.0000
10:47 27.1 18.7 60 299 3.9 5.3 1014.6 0.0000 0.0000
10:57 27.4 18.7 59 306 3.9 5 1014.6 0.0000 0.0000
11:07 27.7 19 59 302 3.9 5.3 1014.6 0.0000 0.0000
11:17 28.1 18.8 57 301 4.2 5.3 1014.6 0.0000 0.0000
11:27 28.6 19.3 57 299 4.2 5.3 1014.6 0.0000 0.0000
11:37 29.1 19.4 56 304 4.2 5.3 1014.6 0.0000 0.0000
11:47 29.7 19.4 54 301 4.4 6.4 1014.6 0.0000 0.0000
11:58 30.1 19.8 54 302 4.4 5.6 1014.6 0.0000 0.0000
12:07 30.4 19.7 53 299 4.2 5.3 1014.5 0.0000 0.0000
12:17 30.5 19.5 52 299 4.2 5.3 1014.4 0.0000 0.0000
12:28 30.6 19.6 52 300 4.2 5 1014.3 0.0000 0.0000
12:38 30.4 19.4 52 299 4.2 5.6 1014.3 0.0000 0.0000
12:48 30.3 19.7 53 296 4.2 5.3 1014.2 0.0000 0.0000
12:58 30.3 19.7 53 299 4.2 5.3 1014.3 0.0000 0.0000
13:08 30.5 19.8 53 294 4.2 5.6 1014.3 0.0000 0.0000
13:18 30.8 20.1 53 302 4.4 6.7 1014.1 0.0000 0.0000
13:28 31.2 20.2 52 301 4.4 5.8 1013.9 0.0000 0.0000
13:39 31.5 19.8 50 301 4.4 6.4 1013.9 0.0000 0.0000
13:48 31.7 20 50 297 4.2 5.6 1013.8 0.0000 0.0000
13:58 31.7 19.3 48 300 4.4 5.6 1013.7 0.0000 0.0000
14:08 31.6 19.6 49 303 4.2 5.3 1013.7 0.0000 0.0000
14:19 31.6 19.9 50 299 4.2 5.3 1013.5 0.0000 0.0000
14:29 31.6 19.6 49 296 4.2 5.3 1013.5 0.0000 0.0000
14:38 31.6 19.9 50 301 4.2 5.6 1013.4 0.0000 0.0000
14:49 31.6 19.9 50 293 3.9 5.6 1013.3 0.0000 0.0000
14:59 31.6 19.9 50 285 3.6 5 1013.1 0.0000 0.0000
15:09 31.5 19.8 50 297 3.9 5 1013.1 0.0000 0.0000
15:19 31.5 19.8 50 281 3.6 5 1013 0.0000 0.0000
15:29 31.5 20.1 51 294 3.9 5 1012.9 0.0000 0.0000
15:39 31.6 19.6 49 299 3.6 5 1012.8 0.0000 0.0000
15:49 31.8 19.1 47 300 3.9 5 1012.9 0.0000 0.0000
16:00 32.1 18.7 45 299 3.9 5 1012.6 0.0000 0.0000
16:09 32.4 21.3 52 288 3.1 4.4 1012.8 0.0000 0.0000
16:19 32.5 22.3 55 273 2.8 4.2 1012.9 0.0000 0.0000
16:29 32.1 21.9 55 282 2.8 4.4 1012.9 0.0000 0.0000
16:43 31.5 21.7 56 265 2.8 7.5 1012.7 0.0000 0.0000
16:53 30.7 21.5 58 233 3.1 5.3 1012.6 0.0000 0.0000
17:04 29.9 21.3 60 237 3.1 5.3 1012.5 0.0000 0.0000
17:14 29.2 20.9 61 238 3.6 6.4 1012.3 0.0000 0.0000
17:23 28.7 21 63 287 2.8 5.3 1012.5 0.0000 0.0000
17:34 28.2 20.7 64 324 6.4 8.1 1013.2 0.0000 0.0000
17:44 27.7 19.5 61 313 4.4 9.2 1012.9 0.0000 0.0000
17:54 27.4 20 64 320 5.3 9.2 1013.1 0.0000 0.0000
18:04 27 20.4 67 313 2.5 4.4 1013.2 0.0000 0.0000
18:14 26.5 20.4 69 318 2.5 5 1013.2 0.0000 0.0000
18:24 26.1 20.7 72 322 2.2 3.9 1013.4 0.1010 0.1000
18:34 25.7 20.5 73 320 4.4 6.4 1013.9 0.1010 0.1000
18:44 25.4 20.4 74 297 2.5 3.6 1014.5 0.1010 0.1000
18:55 25 20.7 77 299 2.8 3.1 1015.1 1.7170 1.7000
19:04 24.5 20.4 78 295 3.1 5 1015.4 3.2320 3.2000
19:14 23.8 19.9 79 309 3.9 6.4 1015.4 4.4440 4.4000
19:25 23.2 19.8 81 284 2.5 3.6 1015.7 4.5450 4.6000
19:35 22.8 19.6 82 297 2.8 4.4 1015.7 5.1510 5.3000
19:45 22.4 19.6 84 288 2.5 3.1 1015.4 6.0600 6.7000
19:55 22.1 19.3 84 295 2.8 3.9 1015.3 4.9490 7.6000
20:05 21.9 19.3 85 298 2.8 4.2 1015.6 5.2520 8.5000
20:15 21.6 19.3 87 300 3.1 5.6 1015.8 4.2420 8.7000
20:25 21.4 19.1 87 300 2.5 4.2 1015.7 3.9390 8.7000
20:36 21.2 19.1 88 285 2.2 3.1 1016 3.4340 8.7000
20:45 21 18.9 88 284 2.2 2.8 1015.8
20:51 20.9 18.8 88 288 2.2 3.6 1015.8 2.6270 10.2000
21:01 20.9 19 89 290 2.5 3.1 1015.9 1.5160 10.2000
21:11 20.8 18.9 89 289 2.2 2.8 1016.1 1.5160 10.2000
21:22 20.8 18.9 89 291 2.5 3.1 1016 2.0210 10.7000
21:31 20.7 18.8 89 289 2.2 3.1 1016.1 2.0210 10.7000
21:41 20.7 19 90 285 2.2 3.1 1016.1 2.0210 10.7000
21:52 20.7 19 90 287 2.2 3.1 1016.1 0.5050 10.7000
22:06 20.7 19 90 286 2.2 3.1 1016 0.5050 10.7000
22:16 20.6 18.9 90 288 2.2 3.9 1016 0.0000 10.7000
22:26 20.6 18.9 90 285 2.5 3.6 1015.9 0.0000 10.7000
22:36 20.5 18.6 89 284 2.5 3.1 1016 0.0000 10.7000
22:46 20.4 18.5 89 289 2.2 3.1 1016 0.0000 10.7000

DAY STATISTIC

2021-09-18
TEMPERATURE
AVERAGE
24.8
HIGH
32.5
16:19
LOW
20.1
05:14
PRESSURE
AVERAGE
1014.3
HIGH
1016.1
21:11
LOW
1012.3
17:14
DEWPOINT
AVERAGE
18.9
HIGH
22.3
16:19
LOW
15.7
06:55
HUMIDITY
AVERAGE
71
HIGH
90
21:41
LOW
45
16:00
WIND SPEED
AVERAGE
3.2
HIGH
6.4
17:34
WIND GUST
AVERAGE
4.5
HIGH
9.2
17:44
WIND DIRECTION
PREVAILING
NW
80.1%
N
0.0
NE
0.0
E
0.0
SE
0.0
S
0.0
SW
2.2
W
17.6
NW
80.1
PRECIPITATION
RAIN HOUR
6.1
RAIN DAY
10.7
TEMPERATURE (°C)
LOW
20.1
HIGH
32.5
AVERAGE
24.8
PRESSURE (hpa)
LOW
1012.3
HIGH
1016.1
AVERAGE
1014.3
DEVICE